Time;durP1;ratioP1;P1;durP2;ratioP2;P2;SDS_P1;SDS_P2;PMS_P1;PMS_P2;Temp;Humidity;BMP_temperature;BMP_pressure;BME280_temperature;BME280_humidity;BME280_pressure;Samples;Min_cycle;Max_cycle;Signal;HPM_P1;HPM_P2
2023/07/28 00:00:20;;;;;;;;;;;17.40;99.90;;;;;;4826224;29;20038;-81
2023/07/28 00:02:46;;;;;;;9.50;7.03;;;17.50;99.90;;;;;;4856134;29;19971;-81
2023/07/28 00:05:11;;;;;;;;;;;19.50;99.90;;;;;;4857975;29;20042;-81
2023/07/28 00:07:37;;;;;;;9.10;6.43;;;19.40;99.90;;;;;;4828647;29;19931;-81
2023/07/28 00:10:03;;;;;;;;;;;19.50;99.90;;;;;;4823870;29;20049;-81
2023/07/28 00:12:28;;;;;;;12.57;6.97;;;19.00;99.90;;;;;;4821435;29;19925;-81
2023/07/28 00:14:54;;;;;;;10.27;6.93;;;17.50;99.90;;;;;;4846289;29;20060;-81
2023/07/28 00:17:19;;;;;;;;;;;17.50;99.90;;;;;;4853541;29;20052;-80
2023/07/28 00:19:45;;;;;;;10.45;6.53;;;18.20;99.90;;;;;;4822204;29;20239;-81
2023/07/28 00:22:11;;;;;;;;;;;18.80;99.90;;;;;;4850060;29;20118;-81
2023/07/28 00:24:36;;;;;;;7.80;5.32;;;17.50;99.90;;;;;;4832388;29;20305;-81
2023/07/28 00:27:02;;;;;;;;;;;19.10;99.90;;;;;;4822599;29;20050;-81
2023/07/28 00:29:27;;;;;;;8.18;5.82;;;19.70;99.90;;;;;;4822482;29;19950;-81
2023/07/28 00:31:53;;;;;;;;;;;18.90;99.90;;;;;;4845105;29;20394;-81
2023/07/28 00:34:20;;;;;;;10.40;7.07;;;17.60;99.90;;;;;;4859100;29;19936;-81
2023/07/28 00:36:46;;;;;;;10.60;7.25;;;19.50;99.90;;;;;;4837195;29;20056;-81
2023/07/28 00:39:11;;;;;;;;;;;19.50;99.90;;;;;;4854108;29;20049;-81
2023/07/28 00:41:37;;;;;;;10.52;6.38;;;17.60;99.90;;;;;;4823270;29;19972;-81
2023/07/28 00:44:02;;;;;;;;;;;17.60;99.90;;;;;;4840922;29;20046;-80
2023/07/28 00:46:31;;;;;;;9.70;6.25;;;18.10;99.90;;;;;;4839170;29;20016;-81
2023/07/28 00:48:57;;;;;;;13.75;7.28;;;18.00;99.90;;;;;;4838341;29;20409;-80
2023/07/28 00:51:23;;;;;;;;;;;19.30;99.90;;;;;;4847983;29;20132;-81
2023/07/28 00:53:49;;;;;;;9.48;6.32;;;19.60;99.90;;;;;;4824074;29;20091;-81
2023/07/28 00:56:15;;;;;;;;;;;19.30;99.90;;;;;;4853333;29;20049;-80
2023/07/28 00:58:40;;;;;;;10.02;6.00;;;17.90;99.90;;;;;;4854352;29;19920;-80
2023/07/28 01:01:06;;;;;;;;;;;17.80;99.90;;;;;;4841834;29;20366;-82
2023/07/28 01:03:32;;;;;;;10.95;6.95;;;18.50;99.90;;;;;;4839171;29;20386;-79
2023/07/28 01:06:06;;;;;;;;;;;19.10;99.90;;;;;;4855625;29;20193;-80
2023/07/28 01:08:47;;;;;;;12.00;7.78;;;17.90;99.90;;;;;;4857204;29;20010;-79
2023/07/28 01:11:14;;;;;;;7.72;6.22;;;19.10;99.90;;;;;;4845478;29;20557;-81
2023/07/28 01:13:39;;;;;;;11.35;7.57;;;18.00;99.90;;;;;;4849492;29;20057;-81
2023/07/28 01:16:06;;;;;;;;;;;18.80;99.90;;;;;;4839092;29;20464;-80
2023/07/28 01:18:31;;;;;;;10.38;7.32;;;18.90;99.90;;;;;;4844377;29;19924;-81
2023/07/28 01:20:58;;;;;;;;;;;18.00;99.90;;;;;;4832669;29;20114;-80
2023/07/28 01:23:50;;;;;;;14.18;8.93;;;19.50;99.90;;;;;;4839873;29;19921;-80
2023/07/28 01:26:17;;;;;;;11.70;8.60;;;19.60;99.90;;;;;;4854523;29;20521;-81
2023/07/28 01:28:44;;;;;;;10.55;7.25;;;19.30;99.90;;;;;;4837747;29;20057;-81
2023/07/28 01:31:10;;;;;;;12.77;7.88;;;19.50;99.90;;;;;;4820909;29;20495;-81
2023/07/28 01:33:36;;;;;;;;;;;19.20;99.90;;;;;;4845530;29;20057;-81
2023/07/28 01:36:02;;;;;;;9.00;6.55;;;19.60;99.90;;;;;;4838065;29;19972;-81
2023/07/28 01:38:28;;;;;;;;;;;18.40;99.90;;;;;;4843172;29;20053;-81
2023/07/28 01:40:54;;;;;;;7.20;5.95;;;18.30;99.90;;;;;;4821718;29;20064;-81
2023/07/28 01:43:19;;;;;;;;;;;18.30;99.90;;;;;;4824160;29;20121;-81
2023/07/28 01:45:45;;;;;;;6.95;5.60;;;18.20;99.90;;;;;;4854272;29;19924;-81
2023/07/28 01:48:10;;;;;;;;;;;17.50;99.90;;;;;;4822212;29;20498;-81
2023/07/28 01:50:37;;;;;;;8.95;6.18;;;19.20;99.90;;;;;;4843002;29;19960;-81
2023/07/28 01:53:05;;;;;;;10.10;5.63;;;17.50;99.90;;;;;;4842424;29;20128;-81
2023/07/28 01:55:30;;;;;;;8.85;5.63;;;19.70;99.90;;;;;;4827083;29;20058;-80
2023/07/28 01:57:57;;;;;;;;;;;19.40;99.90;;;;;;4853568;29;20497;-80
2023/07/28 02:00:23;;;;;;;6.10;4.80;;;19.20;99.90;;;;;;4853597;29;19931;-82
2023/07/28 02:02:49;;;;;;;5.65;4.45;;;18.80;99.90;;;;;;4851775;29;20042;-82
2023/07/28 02:05:14;;;;;;;;;;;17.60;99.90;;;;;;4864536;29;20602;-81
2023/07/28 02:07:41;;;;;;;4.78;3.92;;;19.70;99.90;;;;;;4821793;29;20359;-82
2023/07/28 02:10:07;;;;;;;5.82;4.50;;;19.60;99.90;;;;;;4836911;29;20046;-81
2023/07/28 02:12:32;;;;;;;;;;;19.80;99.90;;;;;;4822935;29;20398;-81
2023/07/28 02:14:58;;;;;;;8.77;5.35;;;19.10;99.90;;;;;;4852178;29;19931;-81
2023/07/28 02:17:24;;;;;;;;;;;19.30;99.90;;;;;;4853976;29;20155;-81
2023/07/28 02:19:49;;;;;;;7.43;5.63;;;19.50;99.90;;;;;;4865311;29;20014;-81
2023/07/28 02:22:15;;;;;;;;;;;17.60;99.90;;;;;;4867194;29;20102;-81
2023/07/28 02:24:41;;;;;;;7.00;5.40;;;19.60;99.90;;;;;;4852816;29;19931;-80
2023/07/28 02:27:06;;;;;;;;;;;18.30;99.90;;;;;;4807009;29;20092;-81
2023/07/28 02:29:32;;;;;;;8.57;6.68;;;17.60;99.90;;;;;;4853596;29;19927;-81
2023/07/28 02:31:57;;;;;;;;;;;17.60;99.90;;;;;;4823586;29;20050;-81
2023/07/28 02:34:23;;;;;;;7.45;5.72;;;17.80;99.90;;;;;;4831827;29;20498;-82
2023/07/28 02:36:49;;;;;;;;;;;18.20;99.90;;;;;;4868501;29;20046;-82
2023/07/28 02:39:15;;;;;;;7.70;6.07;;;19.70;99.90;;;;;;4827984;29;20296;-80
2023/07/28 02:41:40;;;;;;;;;;;19.60;99.90;;;;;;4856389;29;20588;-81
2023/07/28 02:44:06;;;;;;;6.55;4.88;;;19.00;99.90;;;;;;4828940;29;19920;-81
2023/07/28 02:46:31;;;;;;;;;;;19.40;99.90;;;;;;4857005;29;20132;-81
2023/07/28 02:48:57;;;;;;;4.80;4.00;;;18.20;99.90;;;;;;4825222;29;19928;-80
2023/07/28 02:51:23;;;;;;;;;;;19.10;99.90;;;;;;4857972;29;20054;-81
2023/07/28 02:53:48;;;;;;;9.45;6.50;;;19.40;99.90;;;;;;4865551;29;19924;-81
2023/07/28 02:56:14;;;;;;;;;;;19.60;99.90;;;;;;4846484;29;20050;-81
2023/07/28 02:58:40;;;;;;;8.95;5.90;;;17.70;99.90;;;;;;4835469;29;19924;-81
2023/07/28 03:01:05;;;;;;;;;;;19.30;99.90;;;;;;4837221;29;20065;-82
2023/07/28 03:03:31;;;;;;;7.68;6.00;;;17.90;99.90;;;;;;4840990;29;20473;-82
2023/07/28 03:05:56;;;;;;;;;;;18.40;99.90;;;;;;4840864;29;20058;-82
2023/07/28 03:08:22;;;;;;;7.72;5.72;;;18.80;99.90;;;;;;4826586;29;20400;-82
2023/07/28 03:10:48;;;;;;;;;;;17.70;99.90;;;;;;4858695;29;20133;-82
2023/07/28 03:13:13;;;;;;;5.10;4.22;;;19.60;99.90;;;;;;4840918;29;20034;-82
2023/07/28 03:15:39;;;;;;;;;;;19.70;99.90;;;;;;4824177;29;20133;-82
2023/07/28 03:18:04;;;;;;;4.45;4.05;;;18.00;99.90;;;;;;4853382;29;19921;-81
2023/07/28 03:20:30;;;;;;;;;;;19.60;99.90;;;;;;4848307;29;20041;-81
2023/07/28 03:22:56;;;;;;;6.18;4.40;;;19.60;99.90;;;;;;4825424;29;19929;-82
2023/07/28 03:25:21;;;;;;;;;;;17.80;99.90;;;;;;4842204;29;20336;-81
2023/07/28 03:27:47;;;;;;;4.93;3.60;;;19.70;99.90;;;;;;4854844;29;19960;-81
2023/07/28 03:30:13;;;;;;;;;;;18.00;99.90;;;;;;4858761;29;20037;-83
2023/07/28 03:32:39;;;;;;;5.05;4.03;;;17.70;99.90;;;;;;4825092;29;19920;-82
2023/07/28 03:35:05;;;;;;;;;;;18.30;99.90;;;;;;4830832;29;20108;-82
2023/07/28 03:37:34;;;;;;;4.95;3.60;;;18.10;99.90;;;;;;4854576;29;20004;-82
2023/07/28 03:40:00;;;;;;;3.20;2.80;;;17.80;99.90;;;;;;4868508;29;20045;-81
2023/07/28 03:42:26;;;;;;;;;;;18.80;99.90;;;;;;4846180;29;20147;-82
2023/07/28 03:44:52;;;;;;;5.60;3.28;;;19.60;99.90;;;;;;4839442;29;19971;-81
2023/07/28 03:47:17;;;;;;;;;;;19.60;99.90;;;;;;4854401;29;20048;-82
2023/07/28 03:49:43;;;;;;;6.25;3.90;;;19.70;99.90;;;;;;4822202;29;20357;-82
2023/07/28 03:52:09;;;;;;;;;;;17.70;99.90;;;;;;4841892;29;20082;-83
2023/07/28 03:54:34;;;;;;;6.20;3.80;;;18.60;99.90;;;;;;4855166;29;20582;-82
2023/07/28 03:57:00;;;;;;;;;;;18.80;99.90;;;;;;4843874;29;20057;-82
2023/07/28 03:59:25;;;;;;;5.38;3.70;;;17.80;99.90;;;;;;4851339;29;19925;-82
2023/07/28 04:01:52;;;;;;;;;;;19.00;99.90;;;;;;4839530;29;20049;-82
2023/07/28 04:04:18;;;;;;;5.03;3.80;;;17.80;99.90;;;;;;4852730;29;20464;-81
2023/07/28 04:06:44;;;;;;;;;;;18.10;99.90;;;;;;4853254;29;20129;-81
2023/07/28 04:09:14;;;;;;;5.25;3.50;;;19.70;99.90;;;;;;4822551;29;19924;-81
2023/07/28 04:11:41;;;;;;;5.72;3.50;;;19.70;99.90;;;;;;4808444;29;20486;-81
2023/07/28 04:14:07;;;;;;;3.35;2.90;;;19.40;99.90;;;;;;4855019;29;20054;-81
2023/07/28 04:16:33;;;;;;;6.05;3.40;;;19.60;99.90;;;;;;4824633;29;20121;-81
2023/07/28 04:18:59;;;;;;;3.45;2.88;;;19.20;99.90;;;;;;4839550;29;20083;-81
2023/07/28 04:21:25;;;;;;;;;;;18.50;99.90;;;;;;4839862;29;20077;-81
2023/07/28 04:23:50;;;;;;;3.67;2.75;;;18.50;99.90;;;;;;4824570;29;19979;-81
2023/07/28 04:26:16;;;;;;;;;;;18.90;99.90;;;;;;4827379;29;20053;-81
2023/07/28 04:28:42;;;;;;;7.88;4.53;;;19.00;99.90;;;;;;4839294;29;19958;-81
2023/07/28 04:31:08;;;;;;;;;;;19.20;99.90;;;;;;4806687;29;20061;-81
2023/07/28 04:33:34;;;;;;;8.88;4.55;;;19.60;99.90;;;;;;4810546;29;19920;-81
2023/07/28 04:36:00;;;;;;;;;;;18.10;99.90;;;;;;4841818;29;20121;-81
2023/07/28 04:38:26;;;;;;;6.03;3.80;;;19.20;99.90;;;;;;4826018;29;20369;-81
2023/07/28 04:40:52;;;;;;;;;;;19.40;99.90;;;;;;4781126;29;20038;-81
2023/07/28 04:43:17;;;;;;;9.63;5.00;;;19.00;99.90;;;;;;4856625;29;20078;-81
2023/07/28 04:45:44;;;;;;;;;;;18.50;99.90;;;;;;4811738;29;20149;-81
2023/07/28 04:48:10;;;;;;;7.97;4.77;;;18.70;99.90;;;;;;4858240;29;19925;-80
2023/07/28 04:50:36;;;;;;;;;;;18.00;99.90;;;;;;4842764;29;20813;-81
2023/07/28 04:53:02;;;;;;;7.45;4.28;;;18.40;99.90;;;;;;4827071;29;19976;-81
2023/07/28 04:55:27;;;;;;;;;;;19.80;99.90;;;;;;4841502;29;20054;-81
2023/07/28 04:57:53;;;;;;;6.18;4.38;;;18.20;99.90;;;;;;4854868;29;20334;-81
2023/07/28 05:00:19;;;;;;;;;;;18.70;99.90;;;;;;4810784;29;20080;-80
2023/07/28 05:02:45;;;;;;;5.97;4.28;;;19.10;99.90;;;;;;4856228;29;19931;-81
2023/07/28 05:05:10;;;;;;;;;;;17.90;99.90;;;;;;4852932;29;20048;-81
2023/07/28 05:07:36;;;;;;;7.60;4.15;;;19.30;99.90;;;;;;4850167;29;19969;-81
2023/07/28 05:10:02;;;;;;;;;;;19.70;99.90;;;;;;4835773;29;20038;-81
2023/07/28 05:12:28;;;;;;;6.45;3.83;;;19.40;99.90;;;;;;4820397;29;19927;-81
2023/07/28 05:14:54;;;;;;;;;;;19.60;99.90;;;;;;4826758;29;20048;-81
2023/07/28 05:17:20;;;;;;;5.53;3.75;;;19.70;99.90;;;;;;4822923;29;19924;-80
2023/07/28 05:19:45;;;;;;;;;;;17.90;99.90;;;;;;4822900;29;20042;-80
2023/07/28 05:22:11;;;;;;;4.90;3.38;;;19.50;99.90;;;;;;4860502;29;19930;-79
2023/07/28 05:24:37;;;;;;;;;;;19.00;99.90;;;;;;4832855;29;20129;-79
2023/07/28 05:27:02;;;;;;;5.07;3.20;;;18.00;99.90;;;;;;4854413;29;19960;-79
2023/07/28 05:29:28;;;;;;;;;;;18.70;99.90;;;;;;4840754;29;20486;-80
2023/07/28 05:31:54;;;;;;;5.07;3.63;;;18.60;99.90;;;;;;4859217;29;19967;-79
2023/07/28 05:34:19;;;;;;;;;;;19.80;99.90;;;;;;4807016;29;20038;-80
2023/07/28 05:36:45;;;;;;;7.13;4.47;;;18.00;99.90;;;;;;4822257;29;19934;-80
2023/07/28 05:39:10;;;;;;;;;;;19.00;99.90;;;;;;4854602;29;20046;-79
2023/07/28 05:41:37;;;;;;;9.85;4.30;;;19.50;99.90;;;;;;4847429;29;19925;-79
2023/07/28 05:44:03;;;;;;;5.25;3.90;;;18.80;99.90;;;;;;4852676;29;20047;-80
2023/07/28 05:46:29;;;;;;;6.45;4.20;;;18.60;99.90;;;;;;4831751;29;20565;-80
2023/07/28 05:48:55;;;;;;;;;;;18.30;99.90;;;;;;4843197;29;20136;-80
2023/07/28 05:51:21;;;;;;;6.17;3.93;;;19.60;99.90;;;;;;4851416;29;19964;-80
2023/07/28 05:53:47;;;;;;;3.67;3.38;;;19.10;99.90;;;;;;4831067;29;20313;-80
2023/07/28 05:56:13;;;;;;;;;;;19.60;99.90;;;;;;4838250;29;20058;-80
2023/07/28 05:58:39;;;;;;;4.75;3.63;;;19.80;99.90;;;;;;4823481;29;19920;-80
2023/07/28 06:01:04;;;;;;;;;;;19.20;99.90;;;;;;4831725;29;20394;-80
2023/07/28 06:03:30;;;;;;;5.82;4.22;;;19.80;99.90;;;;;;4839339;29;20300;-80
2023/07/28 06:05:56;;;;;;;;;;;18.40;99.90;;;;;;4852743;29;20507;-80
2023/07/28 06:08:22;;;;;;;6.93;4.65;;;18.80;99.90;;;;;;4856187;29;20038;-80
2023/07/28 06:10:47;;;;;;;;;;;19.60;99.90;;;;;;4838150;29;20053;-81
2023/07/28 06:13:13;;;;;;;8.25;5.25;;;19.80;99.90;;;;;;4852206;29;19928;-81
2023/07/28 06:15:39;;;;;;;;;;;19.00;99.90;;;;;;4824389;29;20217;-81
2023/07/28 06:18:05;;;;;;;7.85;5.97;;;19.60;99.90;;;;;;4826065;29;19924;-81
2023/07/28 06:20:31;;;;;;;;;;;18.80;99.90;;;;;;4811542;29;20513;-81
2023/07/28 06:22:56;;;;;;;6.72;5.40;;;19.00;99.90;;;;;;4856021;29;19936;-81
2023/07/28 06:25:22;;;;;;;;;;;19.10;99.90;;;;;;4858545;29;20050;-81
2023/07/28 06:27:48;;;;;;;7.10;5.82;;;18.50;99.90;;;;;;4830012;29;19928;-80
2023/07/28 06:30:13;;;;;;;;;;;18.40;99.90;;;;;;4848829;29;20049;-80
2023/07/28 06:32:39;;;;;;;6.43;5.82;;;18.90;99.90;;;;;;4824961;29;20365;-80
2023/07/28 06:35:06;;;;;;;;;;;19.70;99.90;;;;;;4843682;29;20097;-80
2023/07/28 06:37:33;;;;;;;7.60;6.10;;;19.60;99.90;;;;;;4851095;29;20031;-82
2023/07/28 06:39:59;;;;;;;6.68;6.00;;;18.70;99.90;;;;;;4817859;29;20046;-81
2023/07/28 06:42:26;;;;;;;6.97;6.35;;;19.60;99.90;;;;;;4872802;29;20042;-80
2023/07/28 06:44:52;;;;;;;6.93;6.20;;;18.70;99.90;;;;;;4876130;29;20053;-81
2023/07/28 06:47:18;;;;;;;;;;;18.90;99.90;;;;;;4866064;29;20057;-80
2023/07/28 06:49:43;;;;;;;7.95;6.60;;;18.80;99.90;;;;;;4879095;29;19924;-81
2023/07/28 06:52:09;;;;;;;;;;;19.60;99.90;;;;;;4829889;29;20056;-80
2023/07/28 06:54:36;;;;;;;7.35;6.40;;;18.80;99.90;;;;;;4874032;29;20031;-81
2023/07/28 06:57:02;;;;;;;7.85;6.57;;;18.90;99.90;;;;;;4827908;29;20058;-81
2023/07/28 06:59:28;;;;;;;;;;;19.50;99.90;;;;;;4825227;29;20102;-80
2023/07/28 07:01:53;;;;;;;7.28;6.57;;;19.50;99.90;;;;;;4826873;29;20462;-81
2023/07/28 07:04:19;;;;;;;;;;;19.30;99.90;;;;;;4837343;29;20057;-80
2023/07/28 07:06:45;;;;;;;9.00;6.80;;;19.50;99.90;;;;;;4811673;29;19927;-80
2023/07/28 07:09:14;;;;;;;;;;;18.90;99.90;;;;;;4856865;29;20050;-80
2023/07/28 07:11:40;;;;;;;7.10;6.50;;;19.40;99.90;;;;;;4839921;29;19935;-81
2023/07/28 07:14:06;;;;;;;6.90;6.25;;;18.90;99.90;;;;;;4839827;29;20203;-80
2023/07/28 07:16:32;;;;;;;;;;;19.10;99.90;;;;;;4824573;29;20451;-80
2023/07/28 07:18:57;;;;;;;6.65;6.05;;;19.40;99.90;;;;;;4839884;29;20392;-80
2023/07/28 07:21:23;;;;;;;;;;;19.60;99.90;;;;;;4824646;29;20090;-80
2023/07/28 07:23:49;;;;;;;6.57;5.97;;;19.20;99.90;;;;;;4838319;29;19920;-80
2023/07/28 07:26:15;;;;;;;;;;;19.30;99.90;;;;;;4836315;29;20054;-80
2023/07/28 07:28:40;;;;;;;6.40;5.78;;;19.60;99.90;;;;;;4851642;29;19942;-80
2023/07/28 07:31:13;;;;;;;;;;;19.70;99.90;;;;;;4824847;29;20414;-80
2023/07/28 07:33:39;;;;;;;5.50;5.00;;;19.70;99.90;;;;;;4853277;29;19930;-79
2023/07/28 07:36:05;;;;;;;;;;;19.60;99.90;;;;;;4854612;29;20042;-80
2023/07/28 07:38:30;;;;;;;4.53;3.92;;;19.70;99.90;;;;;;4811411;29;20403;-79
2023/07/28 07:40:56;;;;;;;;;;;19.70;99.90;;;;;;4821231;29;20054;-79
2023/07/28 07:43:22;;;;;;;3.85;3.55;;;19.50;99.90;;;;;;4822798;29;19928;-79
2023/07/28 07:45:50;;;;;;;;;;;19.70;99.90;;;;;;4826396;29;20133;-79
2023/07/28 07:48:15;;;;;;;3.60;3.30;;;19.50;99.90;;;;;;4813372;29;20009;-79
2023/07/28 07:50:41;;;;;;;3.00;2.80;;;19.80;99.90;;;;;;4808718;29;20045;-79
2023/07/28 07:53:07;;;;;;;;;;;19.50;99.90;;;;;;4853790;29;20042;-77
2023/07/28 07:55:32;;;;;;;3.88;3.55;;;19.80;99.90;;;;;;4853749;29;19929;-78
2023/07/28 07:57:58;;;;;;;;;;;19.60;99.90;;;;;;4829774;29;20065;-79
2023/07/28 08:00:24;;;;;;;6.05;4.65;;;19.80;99.90;;;;;;4818177;29;20304;-78
2023/07/28 08:02:49;;;;;;;;;;;19.60;99.90;;;;;;4821145;29;20050;-78
2023/07/28 08:05:15;;;;;;;5.18;4.68;;;19.60;99.90;;;;;;4827317;29;19924;-78
2023/07/28 08:07:42;;;;;;;4.85;4.45;;;19.60;99.90;;;;;;4855415;29;20406;-79
2023/07/28 08:10:08;;;;;;;5.05;4.55;;;19.60;99.90;;;;;;4824747;29;20049;-78
2023/07/28 08:12:34;;;;;;;4.60;4.20;;;19.70;99.90;;;;;;4824337;29;20137;-78
2023/07/28 08:15:00;;;;;;;4.60;4.20;;;19.90;99.90;;;;;;4824692;29;20045;-78
2023/07/28 08:17:25;;;;;;;4.45;4.05;;;20.00;99.90;;;;;;4836299;29;20048;-78
2023/07/28 08:19:51;;;;;;;;;;;20.20;99.90;;;;;;4850898;29;20074;-78
2023/07/28 08:22:17;;;;;;;4.53;4.07;;;20.00;99.90;;;;;;4839818;29;19938;-78
2023/07/28 08:24:42;;;;;;;;;;;20.10;99.90;;;;;;4838142;29;20054;-79
2023/07/28 08:27:08;;;;;;;4.93;4.53;;;19.90;99.90;;;;;;4820980;29;20311;-79
2023/07/28 08:29:34;;;;;;;;;;;20.00;99.90;;;;;;4852083;29;20050;-78
2023/07/28 08:31:59;;;;;;;5.60;4.60;;;19.90;99.90;;;;;;4833341;29;19928;-78
2023/07/28 08:34:25;;;;;;;6.05;5.03;;;19.90;99.90;;;;;;4854153;29;20498;-79
2023/07/28 08:36:51;;;;;;;5.03;4.40;;;19.80;99.90;;;;;;4805706;29;20069;-79
2023/07/28 08:39:20;;;;;;;4.72;3.88;;;19.80;99.90;;;;;;4837592;29;20358;-79
2023/07/28 08:41:46;;;;;;;3.75;3.45;;;20.00;99.90;;;;;;4808049;29;20061;-78
2023/07/28 08:44:12;;;;;;;3.60;3.30;;;19.90;99.90;;;;;;4808751;29;20041;-79
2023/07/28 08:46:38;;;;;;;3.50;3.20;;;20.00;99.90;;;;;;4824237;29;20049;-79
2023/07/28 08:49:04;;;;;;;4.28;3.75;;;20.10;99.90;;;;;;4836808;29;20094;-79
2023/07/28 08:51:30;;;;;;;4.88;3.90;;;20.10;99.90;;;;;;4833982;29;20057;-79
2023/07/28 08:53:55;;;;;;;3.70;3.40;;;20.10;99.90;;;;;;4824147;29;20496;-79
2023/07/28 08:56:21;;;;;;;;;;;20.30;99.90;;;;;;4837965;29;20090;-79
2023/07/28 08:58:47;;;;;;;4.80;4.40;;;20.10;99.90;;;;;;4853332;29;19969;-80
2023/07/28 09:01:13;;;;;;;5.07;4.43;;;20.30;99.90;;;;;;4833725;29;20464;-80
2023/07/28 09:03:42;;;;;;;5.03;4.55;;;20.20;99.90;;;;;;4836343;29;20483;-80
2023/07/28 09:06:08;;;;;;;4.88;4.47;;;20.20;99.90;;;;;;4808845;29;20046;-81
2023/07/28 09:08:36;;;;;;;5.35;4.85;;;20.30;99.90;;;;;;4856104;29;20510;-79
2023/07/28 09:11:05;;;;;;;4.35;3.95;;;20.40;99.90;;;;;;4827521;29;20077;-80
2023/07/28 09:13:41;;;;;;;4.60;4.20;;;20.60;99.90;;;;;;4852243;29;20037;-80
2023/07/28 09:16:17;;;;;;;3.80;3.50;;;20.60;99.90;;;;;;4849633;29;20061;-79
2023/07/28 09:18:43;;;;;;;3.97;3.67;;;20.80;99.90;;;;;;4821424;29;20885;-80
2023/07/28 09:21:20;;;;;;;4.38;3.97;;;20.70;99.90;;;;;;4840757;29;20053;-80
2023/07/28 09:23:47;;;;;;;3.70;3.38;;;20.70;99.90;;;;;;4820293;29;20046;-79
2023/07/28 09:26:15;;;;;;;4.40;3.90;;;21.00;99.90;;;;;;4826941;29;20498;-78
2023/07/28 09:28:41;;;;;;;3.95;3.60;;;21.10;99.90;;;;;;4823625;29;20077;-79
2023/07/28 09:31:08;;;;;;;3.90;3.40;;;21.20;99.90;;;;;;4820321;29;20045;-81
2023/07/28 09:33:35;;;;;;;4.90;3.63;;;21.50;99.90;;;;;;4840549;29;20533;-80
2023/07/28 09:36:10;;;;;;;3.78;3.28;;;21.40;99.90;;;;;;4829049;29;20135;-78
2023/07/28 09:38:41;;;;;;;5.30;3.20;;;21.50;99.90;;;;;;4822416;29;20511;-79
2023/07/28 09:41:10;;;;;;;4.00;3.38;;;21.50;99.90;;;;;;4843144;29;20037;-76
2023/07/28 09:43:40;;;;;;;3.22;2.75;;;21.80;99.90;;;;;;4817525;29;20542;-78
2023/07/28 09:46:08;;;;;;;3.30;3.00;;;21.90;99.90;;;;;;4828164;29;20061;-77
2023/07/28 09:48:37;;;;;;;3.30;3.00;;;22.00;99.90;;;;;;4819735;29;20053;-77
2023/07/28 09:51:17;;;;;;;2.97;2.78;;;22.30;99.90;;;;;;4838044;29;20091;-81
2023/07/28 09:53:55;;;;;;;4.03;3.28;;;22.70;99.90;;;;;;4817074;29;20467;-80
2023/07/28 09:56:23;;;;;;;3.10;2.80;;;22.50;99.90;;;;;;4829302;29;20061;-79
2023/07/28 09:58:52;;;;;;;3.22;2.85;;;22.40;99.90;;;;;;4853696;29;20050;-81
2023/07/28 10:01:19;;;;;;;3.00;2.70;;;22.10;99.90;;;;;;4854420;29;20042;-79
2023/07/28 10:03:45;;;;;;;3.95;2.80;;;21.80;99.90;;;;;;4839100;29;20034;-78
2023/07/28 10:06:11;;;;;;;2.97;2.78;;;21.70;99.90;;;;;;4842273;29;20454;-80
2023/07/28 10:08:38;;;;;;;3.50;3.20;;;21.60;99.90;;;;;;4857446;29;20106;-80
2023/07/28 10:11:04;;;;;;;3.65;3.35;;;21.70;99.90;;;;;;4855739;29;20050;-80
2023/07/28 10:13:40;;;;;;;3.30;3.00;;;21.70;99.90;;;;;;4826563;29;20486;-80
2023/07/28 10:16:07;;;;;;;3.72;3.20;;;21.90;99.90;;;;;;4822071;29;20052;-79
2023/07/28 10:18:33;;;;;;;4.10;3.25;;;21.90;99.90;;;;;;4853203;29;20156;-80
2023/07/28 10:21:07;;;;;;;3.17;2.80;;;21.90;99.90;;;;;;4855328;29;20164;-80
2023/07/28 10:23:37;;;;;;;3.13;2.88;;;21.70;99.90;;;;;;4854173;29;20482;-80
2023/07/28 10:26:05;;;;;;;3.08;2.83;;;21.50;99.90;;;;;;4850692;29;20061;-81
2023/07/28 10:28:40;;;;;;;3.28;2.35;;;21.70;99.90;;;;;;4854520;29;20058;-79
2023/07/28 10:31:11;;;;;;;2.67;2.33;;;22.00;99.90;;;;;;4855699;29;20106;-80
2023/07/28 10:33:39;;;;;;;2.60;2.35;;;22.40;99.90;;;;;;4836850;29;20050;-80
2023/07/28 10:36:41;;;;;;;2.40;2.20;;;22.60;99.90;;;;;;4825415;29;20054;-81
2023/07/28 10:39:17;;;;;;;3.53;2.20;;;22.90;99.90;;;;;;4850380;29;20499;-80
2023/07/28 10:42:00;;;;;;;2.13;1.85;;;22.90;99.90;;;;;;4809548;29;20064;-81
2023/07/28 10:44:27;;;;;;;2.05;1.80;;;22.80;98.30;;;;;;4852256;29;20982;-81
2023/07/28 10:46:53;;;;;;;2.53;1.75;;;22.80;47.20;;;;;;4825782;29;20140;-80
2023/07/28 10:49:19;;;;;;;2.08;1.88;;;22.90;1.00;;;;;;4855381;29;20692;-80
2023/07/28 10:51:46;;;;;;;1.67;1.52;;;23.00;99.90;;;;;;4823687;29;20052;-80
2023/07/28 10:54:16;;;;;;;2.17;1.65;;;23.10;99.90;;;;;;4838471;29;20094;-80
2023/07/28 10:56:42;;;;;;;1.60;1.40;;;23.10;58.30;;;;;;4854342;29;20046;-80
2023/07/28 10:59:08;;;;;;;1.98;1.77;;;22.90;99.90;;;;;;4855365;29;20060;-78
2023/07/28 11:01:38;;;;;;;2.53;1.45;;;22.70;99.90;;;;;;4853158;29;20479;-76
2023/07/28 11:04:10;;;;;;;2.15;1.42;;;22.70;99.20;;;;;;4810624;29;20114;-77
2023/07/28 11:06:39;;;;;;;2.10;1.35;;;22.80;99.90;;;;;;4852806;29;20570;-80
2023/07/28 11:09:09;;;;;;;2.47;1.75;;;23.10;99.90;;;;;;4856448;29;20060;-81
2023/07/28 11:11:39;;;;;;;1.40;1.30;;;23.20;1.00;;;;;;4843678;29;20041;-81
2023/07/28 11:14:09;;;;;;;3.03;1.60;;;23.10;99.90;;;;;;4799991;29;20407;-80
2023/07/28 11:16:44;;;;;;;2.00;1.40;;;22.90;99.90;;;;;;4810790;29;20161;-78
2023/07/28 11:19:19;;;;;;;1.98;1.60;;;22.80;23.10;;;;;;4813450;29;20045;-78
2023/07/28 11:21:50;;;;;;;2.20;1.50;;;22.70;99.90;;;;;;4818479;29;20099;-77
2023/07/28 11:24:19;;;;;;;1.83;1.40;;;22.70;99.90;;;;;;4839214;29;20053;-77
2023/07/28 11:26:45;;;;;;;2.17;1.75;;;23.10;99.90;;;;;;4853520;29;20064;-77
2023/07/28 11:29:12;;;;;;;2.05;1.70;;;23.30;1.00;;;;;;4828982;29;20133;-77
2023/07/28 11:31:38;;;;;;;2.05;1.38;;;23.80;99.90;;;;;;4807714;29;20188;-76
2023/07/28 11:34:15;;;;;;;2.85;1.60;;;24.30;23.10;;;;;;4839647;29;20534;-77
2023/07/28 11:36:42;;;;;;;3.17;1.60;;;24.20;1.00;;;;;;4823377;29;20081;-76
2023/07/28 11:39:10;;;;;;;2.10;1.30;;;24.10;3.60;;;;;;4817879;29;20054;-77
2023/07/28 11:41:37;;;;;;;1.75;1.30;;;23.90;99.90;;;;;;4812138;29;20428;-77
2023/07/28 11:44:04;;;;;;;1.30;1.20;;;24.20;99.90;;;;;;4834331;29;20046;-77
2023/07/28 11:46:40;;;;;;;1.52;1.30;;;24.20;99.90;;;;;;4832605;29;20046;-77
2023/07/28 11:49:21;;;;;;;1.73;1.30;;;23.80;1.00;;;;;;4850202;29;20633;-77
2023/07/28 11:51:49;;;;;;;1.75;1.50;;;24.00;24.40;;;;;;4854874;29;20053;-76
2023/07/28 11:54:16;;;;;;;2.50;1.60;;;24.40;99.90;;;;;;4825137;29;20072;-77
2023/07/28 11:56:44;;;;;;;2.55;1.67;;;24.50;99.90;;;;;;4808342;29;20432;-77
2023/07/28 11:59:10;;;;;;;1.75;1.30;;;24.70;99.90;;;;;;4837394;29;20038;-77
2023/07/28 12:02:00;;;;;;;2.05;1.50;;;25.10;99.90;;;;;;4838284;29;20046;-77
2023/07/28 12:04:30;;;;;;;1.63;1.35;;;25.10;99.90;;;;;;4851293;29;20049;-77
2023/07/28 12:07:13;;;;;;;1.52;1.10;;;25.00;99.90;;;;;;4811318;29;20046;-77
2023/07/28 12:09:48;;;;;;;1.70;1.20;;;25.30;99.90;;;;;;4840470;29;20519;-77
2023/07/28 12:12:22;;;;;;;1.20;1.10;;;25.10;99.90;;;;;;4823360;29;20639;-78
2023/07/28 12:14:48;;;;;;;1.55;1.00;;;24.80;99.90;;;;;;4823163;29;20053;-78
2023/07/28 12:17:15;;;;;;;1.52;1.20;;;24.60;99.90;;;;;;4822796;29;20057;-77
2023/07/28 12:20:01;;;;;;;2.33;1.42;;;24.40;99.90;;;;;;4819517;29;20046;-78
2023/07/28 12:22:30;;;;;;;2.90;1.50;;;24.20;99.90;;;;;;4821033;29;20444;-77
2023/07/28 12:24:55;;;;;;;2.42;1.30;;;24.30;99.90;;;;;;4838153;29;20119;-77
2023/07/28 12:27:23;;;;;;;1.63;1.20;;;24.60;99.90;;;;;;4823643;29;20541;-77
2023/07/28 12:29:52;;;;;;;2.60;1.35;;;24.50;1.00;;;;;;4831224;29;20490;-77
2023/07/28 12:32:18;;;;;;;2.08;1.25;;;24.70;99.90;;;;;;4855511;29;20081;-77
2023/07/28 12:34:44;;;;;;;1.20;0.93;;;24.70;99.90;;;;;;4824379;29;20052;-77
2023/07/28 12:37:10;;;;;;;2.15;1.20;;;24.50;99.90;;;;;;4821005;29;20638;-77
2023/07/28 12:39:40;;;;;;;1.33;1.00;;;24.60;99.90;;;;;;4852979;29;20466;-78
2023/07/28 12:42:10;;;;;;;2.00;1.17;;;24.30;99.90;;;;;;4819162;29;20455;-78
2023/07/28 12:44:37;;;;;;;1.67;1.10;;;24.20;99.90;;;;;;4821901;29;20478;-78
2023/07/28 12:47:03;;;;;;;1.30;1.20;;;24.70;1.00;;;;;;4852645;29;20054;-78
2023/07/28 12:49:29;;;;;;;1.25;1.02;;;24.90;99.90;;;;;;4853208;29;20061;-78
2023/07/28 12:51:59;;;;;;;2.25;0.98;;;25.20;99.90;;;;;;4801383;29;20046;-78
2023/07/28 12:54:25;;;;;;;1.20;1.10;;;25.20;95.50;;;;;;4824334;29;20110;-78
2023/07/28 12:56:51;;;;;;;1.58;1.10;;;25.60;92.20;;;;;;4860624;29;20058;-79
2023/07/28 12:59:17;;;;;;;1.30;1.20;;;25.40;27.60;;;;;;4824592;29;20090;-79
2023/07/28 13:01:43;;;;;;;1.50;1.10;;;25.40;68.80;;;;;;4835439;29;20050;-79
2023/07/28 13:04:08;;;;;;;1.45;0.82;;;25.70;99.90;;;;;;4836799;29;20837;-79
2023/07/28 13:06:34;;;;;;;1.10;1.00;;;25.50;1.00;;;;;;4812832;29;20054;-79
2023/07/28 13:09:00;;;;;;;1.50;0.90;;;25.40;1.00;;;;;;4853471;29;20494;-79